Terminal Aerodrome Forecast
Issued by NWS Lake Charles, LA

Home | Current Version | Previous Version | Text Only | Print | Product List | Glossary On
Versions: 1 2 3 4 5 6 7 8 9 10 11 12 13 14 15 16 17 18 19 20
000
FTUS44 KLCH 232328
TAFLFT
TAF
KLFT 232328Z 2400/2424 11006KT P6SM VCTS BKN035CB BKN090
     FM240200 11005KT P6SM SCT025 BKN150
     FM240900 11005KT P6SM VCSH BKN025
     FM241400 15012G18KT P6SM VCTS BKN025CB
     FM241800 18016KT P6SM TSRA BKN015CB=

USA.gov is the U.S. government's official web portal to all federal, state and local government web resources and services.